Terminal Aerodrome Forecast
Issued by NWS

Home | Current Version | Previous Version | Text Only | Print | Product List | Glossary On
Versions: 1 2 3 4 5 6 7 8 9 10 11 12 13 14 15 16 17 18 19 20 21 22 23 24 25 26 27 28 29 30 31 32 33
000
FTUS44 KHGX 231537 AAC
TAFCXO
TAF AMD
KCXO 231537Z 2316/2412 16004KT P6SM FEW015
      TEMPO 2316/2318 BKN015
     FM231800 12007KT P6SM SCT030
     FM240000 VRB03KT P6SM SKC
     FM240800 00000KT 3SM BR SKC
      AMD NOT SKED=

USA.gov is the U.S. government's official web portal to all federal, state and local government web resources and services.